Time;durP1;ratioP1;P1;durP2;ratioP2;P2;SDS_P1;SDS_P2;PMS_P1;PMS_P2;Temp;Humidity;BMP_temperature;BMP_pressure;BME280_temperature;BME280_humidity;BME280_pressure;Samples;Min_cycle;Max_cycle;Signal;HPM_P1;HPM_P2
2021/12/15 16:07:35;;;;;;;7.55;4.47;;;;;;;;;;5063572;28;20404;-79
2021/12/15 16:10:00;;;;;;;7.55;3.85;;;;;;;;;;5051124;28;20114;-79
2021/12/15 16:12:28;;;;;;;7.90;5.03;;;;;;;;;;5046455;28;20044;-81
2021/12/15 16:14:54;;;;;;;11.00;5.80;;;;;;;;;;5017209;28;20064;-79
2021/12/15 16:17:36;;;;;;;9.27;6.10;;;;;;;;;;5047443;28;20041;-79
2021/12/15 16:20:15;;;;;;;7.82;5.60;;;;;;;;;;5033166;28;20023;-79
2021/12/15 16:22:52;;;;;;;11.40;5.82;;;;;;;;;;5046445;28;20503;-81
2021/12/15 16:25:25;;;;;;;11.05;6.25;;;;;;;;;;5048656;28;20021;-85
2021/12/15 16:28:07;;;;;;;9.50;5.82;;;;;;;;;;5029530;28;20033;-81
2021/12/15 16:30:36;;;;;;;7.22;4.88;;;;;;;;;;5045242;28;20029;-81
2021/12/15 16:33:03;;;;;;;7.97;4.47;;;;;;;;;;5045167;28;20027;-80
2021/12/15 16:35:32;;;;;;;9.27;5.85;;;;;;;;;;5047310;28;20353;-79
2021/12/15 16:38:25;;;;;;;9.65;5.65;;;;;;;;;;5045333;28;20163;-81
2021/12/15 16:41:00;;;;;;;8.82;5.90;;;;;;;;;;5044768;28;20139;-82
2021/12/15 16:43:25;;;;;;;8.40;4.32;;;;;;;;;;5045758;28;20025;-80
2021/12/15 16:45:52;;;;;;;8.57;4.28;;;;;;;;;;5045095;28;20082;-82
2021/12/15 16:48:32;;;;;;;8.02;4.45;;;;;;;;;;5046334;28;20021;-82
2021/12/15 16:51:10;;;;;;;7.47;4.05;;;;;;;;;;5046192;28;20362;-83
2021/12/15 16:53:39;;;;;;;6.10;4.20;;;;;;;;;;5046154;28;20036;-84
2021/12/15 16:56:06;;;;;;;5.63;3.53;;;;;;;;;;5045892;28;20025;-81
2021/12/15 16:58:32;;;;;;;7.18;3.58;;;;;;;;;;5029531;28;20434;-81
2021/12/15 17:00:58;;;;;;;4.63;3.20;;;;;;;;;;5045059;28;20120;-81
2021/12/15 17:03:23;;;;;;;4.05;3.35;;;;;;;;;;5046959;28;20387;-83
2021/12/15 17:05:50;;;;;;;4.90;3.30;;;;;;;;;;5045684;28;20055;-82
2021/12/15 17:08:21;;;;;;;5.47;3.20;;;;;;;;;;5043696;28;20044;-81
2021/12/15 17:10:50;;;;;;;5.78;3.30;;;;;;;;;;5027847;28;20029;-80
2021/12/15 17:13:22;;;;;;;7.43;3.60;;;;;;;;;;5044635;28;20040;-82
2021/12/15 17:15:57;;;;;;;4.85;3.22;;;;;;;;;;5028582;28;20108;-82
2021/12/15 17:18:34;;;;;;;4.30;2.97;;;;;;;;;;5034709;28;20123;-81
2021/12/15 17:21:10;;;;;;;3.47;2.90;;;;;;;;;;5031777;28;20423;-82
2021/12/15 17:23:36;;;;;;;5.50;3.17;;;;;;;;;;5033123;28;20034;-85
2021/12/15 17:26:05;;;;;;;4.13;2.65;;;;;;;;;;5032241;28;20021;-84
2021/12/15 17:28:42;;;;;;;4.68;2.88;;;;;;;;;;5029972;28;20052;-83
2021/12/15 17:31:14;;;;;;;4.68;2.95;;;;;;;;;;5037985;28;20022;-83
2021/12/15 17:33:45;;;;;;;3.33;2.83;;;;;;;;;;5033651;28;20025;-84
2021/12/15 17:36:41;;;;;;;4.57;2.88;;;;;;;;;;5037186;28;20025;-85
2021/12/15 17:39:38;;;;;;;5.63;3.65;;;;;;;;;;5038669;28;20120;-84
2021/12/15 17:42:18;;;;;;;5.75;4.00;;;;;;;;;;5039777;28;20390;-86
2021/12/15 17:45:07;;;;;;;11.75;4.25;;;;;;;;;;5033876;28;20033;-84
2021/12/15 17:47:40;;;;;;;8.65;4.20;;;;;;;;;;5038104;28;20078;-83
2021/12/15 17:50:13;;;;;;;16.67;4.35;;;;;;;;;;5038199;28;20100;-84
2021/12/15 17:52:48;;;;;;;9.83;4.40;;;;;;;;;;5033208;28;20033;-85
2021/12/15 17:55:18;;;;;;;6.45;4.28;;;;;;;;;;5033710;28;20174;-81
2021/12/15 17:58:08;;;;;;;6.22;4.40;;;;;;;;;;5020168;28;20056;-81
2021/12/15 18:00:42;;;;;;;6.50;4.32;;;;;;;;;;5033305;28;20103;-80
2021/12/15 18:03:15;;;;;;;6.38;3.90;;;;;;;;;;5035224;28;20021;-83
2021/12/15 18:05:41;;;;;;;5.85;4.20;;;;;;;;;;5033087;28;20125;-84
2021/12/15 18:08:07;;;;;;;6.88;4.20;;;;;;;;;;5032945;28;20533;-83
2021/12/15 18:10:43;;;;;;;8.40;4.13;;;;;;;;;;5036545;28;20107;-84
2021/12/15 18:13:09;;;;;;;6.20;4.18;;;;;;;;;;5039621;28;20024;-84
2021/12/15 18:15:36;;;;;;;6.00;4.47;;;;;;;;;;5035004;28;20037;-82
2021/12/15 18:18:02;;;;;;;8.95;4.68;;;;;;;;;;5033511;28;20536;-81
2021/12/15 18:20:28;;;;;;;7.07;4.65;;;;;;;;;;5034795;28;20033;-83
2021/12/15 18:22:53;;;;;;;8.45;4.20;;;;;;;;;;5037303;28;20032;-81
2021/12/15 18:25:20;;;;;;;5.90;3.75;;;;;;;;;;5036297;28;20033;-83
2021/12/15 18:27:46;;;;;;;7.40;4.70;;;;;;;;;;5033456;28;20037;-81
2021/12/15 18:30:14;;;;;;;5.32;4.00;;;;;;;;;;5032462;28;20507;-83
2021/12/15 18:32:40;;;;;;;6.13;3.90;;;;;;;;;;5037557;28;20037;-81
2021/12/15 18:35:05;;;;;;;7.65;4.20;;;;;;;;;;5033909;28;20036;-81
2021/12/15 18:37:31;;;;;;;5.93;3.83;;;;;;;;;;5039229;28;20026;-81
2021/12/15 18:39:58;;;;;;;4.80;3.55;;;;;;;;;;5020838;28;20099;-81
2021/12/15 18:42:27;;;;;;;6.72;3.80;;;;;;;;;;5025421;28;20029;-81
2021/12/15 18:44:54;;;;;;;5.85;3.50;;;;;;;;;;5041986;28;20029;-82
2021/12/15 18:47:26;;;;;;;6.20;3.80;;;;;;;;;;5045440;28;20060;-82
2021/12/15 18:49:56;;;;;;;8.55;4.22;;;;;;;;;;5042452;28;20025;-83
2021/12/15 18:52:22;;;;;;;5.97;3.60;;;;;;;;;;5046846;28;20006;-82
2021/12/15 18:54:51;;;;;;;4.85;3.42;;;;;;;;;;5044006;28;20088;-80
2021/12/15 18:57:17;;;;;;;5.90;3.20;;;;;;;;;;5040662;28;20560;-81
2021/12/15 18:59:45;;;;;;;4.95;3.55;;;;;;;;;;5039135;28;20033;-80
2021/12/15 19:02:14;;;;;;;4.32;3.38;;;;;;;;;;5036207;28;20021;-83
2021/12/15 19:04:41;;;;;;;4.32;3.35;;;;;;;;;;5036482;28;20029;-82
2021/12/15 19:07:08;;;;;;;3.75;3.35;;;;;;;;;;5016297;28;20052;-82
2021/12/15 19:09:35;;;;;;;5.03;3.10;;;;;;;;;;5033631;28;20030;-82
2021/12/15 19:12:04;;;;;;;5.15;3.22;;;;;;;;;;5033281;28;20422;-84
2021/12/15 19:14:40;;;;;;;4.68;4.05;;;;;;;;;;5034284;28;20461;-80
2021/12/15 19:17:06;;;;;;;4.28;3.03;;;;;;;;;;5033112;28;20056;-81
2021/12/15 19:19:35;;;;;;;3.85;2.60;;;;;;;;;;5032907;28;20029;-81
2021/12/15 19:22:06;;;;;;;6.95;4.57;;;;;;;;;;5017760;28;20468;-79
2021/12/15 19:24:32;;;;;;;10.60;5.10;;;;;;;;;;5034362;28;20373;-80
2021/12/15 19:26:57;;;;;;;5.13;3.38;;;;;;;;;;5035293;28;20028;-80
2021/12/15 19:29:23;;;;;;;5.22;3.05;;;;;;;;;;5033619;28;20029;-79
2021/12/15 19:31:49;;;;;;;8.32;5.32;;;;;;;;;;5034052;28;20033;-80
2021/12/15 19:34:16;;;;;;;15.43;5.20;;;;;;;;;;5033961;28;20064;-79
2021/12/15 19:36:42;;;;;;;10.55;5.80;;;;;;;;;;5035036;28;20432;-79
2021/12/15 19:39:11;;;;;;;11.65;4.63;;;;;;;;;;5034117;28;20082;-79
2021/12/15 19:41:44;;;;;;;7.22;5.00;;;;;;;;;;5036531;28;20120;-79
2021/12/15 19:44:14;;;;;;;12.43;5.57;;;;;;;;;;5022545;28;20543;-79
2021/12/15 19:46:41;;;;;;;7.28;4.90;;;;;;;;;;5036417;28;20025;-80
2021/12/15 19:49:07;;;;;;;8.50;5.40;;;;;;;;;;5036562;28;20025;-79
2021/12/15 19:51:34;;;;;;;5.63;4.50;;;;;;;;;;5035931;28;20386;-79
2021/12/15 19:54:00;;;;;;;7.65;4.30;;;;;;;;;;5035770;28;20032;-79
2021/12/15 19:56:26;;;;;;;8.20;4.63;;;;;;;;;;5035297;28;20025;-79
2021/12/15 19:58:52;;;;;;;7.93;4.07;;;;;;;;;;5037381;28;20064;-78
2021/12/15 20:01:32;;;;;;;7.88;4.50;;;;;;;;;;5039627;28;20049;-78
2021/12/15 20:03:58;;;;;;;12.02;4.38;;;;;;;;;;5038418;28;20021;-79
2021/12/15 20:06:27;;;;;;;7.03;4.22;;;;;;;;;;5036276;28;20120;-79
2021/12/15 20:08:53;;;;;;;7.13;4.32;;;;;;;;;;5034492;28;20064;-79
2021/12/15 20:11:22;;;;;;;7.30;3.90;;;;;;;;;;5002038;28;20503;-78
2021/12/15 20:13:52;;;;;;;4.97;3.65;;;;;;;;;;5034184;28;20025;-78
2021/12/15 20:16:29;;;;;;;7.45;3.72;;;;;;;;;;5037209;28;20018;-76
2021/12/15 20:18:55;;;;;;;5.95;3.90;;;;;;;;;;5016755;28;20132;-78
2021/12/15 20:21:21;;;;;;;8.35;3.70;;;;;;;;;;5037607;28;20022;-77
2021/12/15 20:23:47;;;;;;;6.93;3.60;;;;;;;;;;5033178;28;20464;-78
2021/12/15 20:26:14;;;;;;;5.60;3.40;;;;;;;;;;5033719;28;20080;-79
